JAGUR11 PAEI-PAED
Flight info
| Callsign | JAGUR11 |
|---|---|
| Flight time | 0h 54m |
| Altitude | 26000 |
| Route | RUNDY1 BIG CRUZR GRUUB1 |
| Aircraft | JAGR/M-SABDE2E3FGHIJ1J3J4J5P2RWXY/LB1D1 |
Departure
| Time | 2026-04-22 21:33 |
|---|---|
| Airport | Eielson Air Force Base (PAEI) |
Arrival
| Time | 2026-04-22 22:27 |
|---|---|
| Airport | Elmendorf Air Force Base (PAED) |
| Time | Latitude | Longitude | Altitude | Speed | Heading |
|---|---|---|---|---|---|
| 2026-04-22 21:13 | 64.67504 | -147.10218 | 552 ft | 0 kts | 223° |
| 2026-04-22 21:26 | 64.67566 | -147.10333 | 555 ft | 19 kts | 356° |
| 2026-04-22 21:26 | 64.67661 | -147.10351 | 554 ft | 12 kts | 36° |
| 2026-04-22 21:26 | 64.67722 | -147.10332 | 555 ft | 7 kts | 344° |
| 2026-04-22 21:26 | 64.67754 | -147.10356 | 554 ft | 5 kts | 342° |
| 2026-04-22 21:27 | 64.67834 | -147.10394 | 557 ft | 18 kts | 345° |
| 2026-04-22 21:27 | 64.67971 | -147.10512 | 554 ft | 19 kts | 339° |
| 2026-04-22 21:27 | 64.68069 | -147.10613 | 552 ft | 12 kts | 338° |
| 2026-04-22 21:27 | 64.68072 | -147.10616 | 554 ft | 0 kts | 338° |
| 2026-04-22 21:29 | 64.68073 | -147.10617 | 553 ft | 1 kts | 338° |
| 2026-04-22 21:29 | 64.68161 | -147.10697 | 552 ft | 24 kts | 338° |
| 2026-04-22 21:29 | 64.68293 | -147.10816 | 562 ft | 17 kts | 338° |
| 2026-04-22 21:29 | 64.68379 | -147.10893 | 552 ft | 10 kts | 337° |
| 2026-04-22 21:30 | 64.68431 | -147.10940 | 553 ft | 6 kts | 339° |
| 2026-04-22 21:30 | 64.68463 | -147.10988 | 558 ft | 7 kts | 315° |
| 2026-04-22 21:30 | 64.68487 | -147.11189 | 554 ft | 13 kts | 257° |
| 2026-04-22 21:30 | 64.68465 | -147.11360 | 551 ft | 9 kts | 253° |
| 2026-04-22 21:31 | 64.68446 | -147.11474 | 551 ft | 9 kts | 245° |
| 2026-04-22 21:31 | 64.68395 | -147.11656 | 546 ft | 20 kts | 224° |
| 2026-04-22 21:31 | 64.68296 | -147.11680 | 546 ft | 0 kts | 159° |
| 2026-04-22 21:32 | 64.68289 | -147.11675 | 547 ft | 14 kts | 163° |
| 2026-04-22 21:32 | 64.67760 | -147.11211 | 544 ft | 146 kts | 158° |
| 2026-04-22 21:33 | 64.66481 | -147.10157 | 734 ft | 226 kts | 158° |
| 2026-04-22 21:33 | 64.64954 | -147.08556 | 1994 ft | 247 kts | 152° |
| 2026-04-22 21:33 | 64.63447 | -147.06618 | 4323 ft | 255 kts | 150° |
| 2026-04-22 21:33 | 64.61882 | -147.04467 | 6660 ft | 265 kts | 153° |
| 2026-04-22 21:34 | 64.60274 | -147.02289 | 8909 ft | 273 kts | 155° |
| 2026-04-22 21:34 | 64.58615 | -146.99997 | 11118 ft | 278 kts | 155° |
| 2026-04-22 21:34 | 64.56968 | -146.97631 | 13264 ft | 275 kts | 155° |
| 2026-04-22 21:34 | 64.55398 | -146.95268 | 15170 ft | 267 kts | 154° |
| 2026-04-22 21:35 | 64.53885 | -146.92868 | 16915 ft | 256 kts | 154° |
| 2026-04-22 21:35 | 64.52476 | -146.90507 | 18452 ft | 242 kts | 153° |
| 2026-04-22 21:35 | 64.51190 | -146.88230 | 19513 ft | 228 kts | 153° |
| 2026-04-22 21:35 | 64.49988 | -146.85972 | 20300 ft | 215 kts | 152° |
| 2026-04-22 21:36 | 64.48853 | -146.83729 | 20623 ft | 222 kts | 150° |
| 2026-04-22 21:36 | 64.47630 | -146.81311 | 20764 ft | 235 kts | 150° |
| 2026-04-22 21:36 | 64.46429 | -146.78893 | 21289 ft | 225 kts | 149° |
| 2026-04-22 21:36 | 64.45255 | -146.76441 | 21605 ft | 231 kts | 148° |
| 2026-04-22 21:37 | 64.44036 | -146.73877 | 21764 ft | 241 kts | 148° |
| 2026-04-22 21:37 | 64.42810 | -146.71253 | 22206 ft | 235 kts | 147° |
| 2026-04-22 21:37 | 64.41640 | -146.68675 | 22556 ft | 236 kts | 146° |
| 2026-04-22 21:37 | 64.40420 | -146.65954 | 22671 ft | 246 kts | 146° |
| 2026-04-22 21:38 | 64.39205 | -146.63209 | 22991 ft | 245 kts | 145° |
| 2026-04-22 21:38 | 64.38007 | -146.60427 | 23346 ft | 243 kts | 144° |
| 2026-04-22 21:38 | 64.36799 | -146.57572 | 23470 ft | 252 kts | 143° |
| 2026-04-22 21:38 | 64.35983 | -146.55626 | 23609 ft | 254 kts | 143° |
| 2026-04-22 21:39 | 64.34787 | -146.52721 | 23920 ft | 250 kts | 142° |
| 2026-04-22 21:39 | 64.33591 | -146.49752 | 24101 ft | 253 kts | 142° |
| 2026-04-22 21:39 | 64.32402 | -146.46758 | 24230 ft | 257 kts | 141° |
| 2026-04-22 21:39 | 64.31211 | -146.43701 | 24446 ft | 256 kts | 140° |
| 2026-04-22 21:40 | 64.30029 | -146.40603 | 24632 ft | 257 kts | 139° |
| 2026-04-22 21:40 | 64.28484 | -146.36461 | 24805 ft | 261 kts | 139° |
| 2026-04-22 21:40 | 64.27687 | -146.34290 | 24923 ft | 261 kts | 138° |
| 2026-04-22 21:40 | 64.26543 | -146.31119 | 25114 ft | 260 kts | 137° |
| 2026-04-22 21:41 | 64.25389 | -146.27862 | 25256 ft | 262 kts | 137° |
| 2026-04-22 21:41 | 64.24245 | -146.24569 | 25395 ft | 264 kts | 136° |
| 2026-04-22 21:41 | 64.23121 | -146.21274 | 25547 ft | 264 kts | 135° |
| 2026-04-22 21:41 | 64.22008 | -146.17953 | 25673 ft | 265 kts | 135° |
| 2026-04-22 21:42 | 64.20884 | -146.14546 | 25795 ft | 267 kts | 134° |
| 2026-04-22 21:42 | 64.19783 | -146.11151 | 25927 ft | 267 kts | 133° |
| 2026-04-22 21:42 | 64.18683 | -146.07689 | 26049 ft | 268 kts | 133° |
| 2026-04-22 21:42 | 64.17559 | -146.04115 | 26025 ft | 281 kts | 132° |
| 2026-04-22 21:43 | 64.16394 | -146.00393 | 26021 ft | 298 kts | 131° |
| 2026-04-22 21:43 | 64.15132 | -145.96371 | 26018 ft | 321 kts | 131° |
| 2026-04-22 21:43 | 64.13788 | -145.92085 | 26011 ft | 349 kts | 130° |
| 2026-04-22 21:43 | 64.12304 | -145.87341 | 26005 ft | 381 kts | 130° |
| 2026-04-22 21:44 | 64.10710 | -145.82246 | 25992 ft | 414 kts | 130° |
| 2026-04-22 21:44 | 64.08934 | -145.76667 | 25985 ft | 448 kts | 130° |
| 2026-04-22 21:44 | 64.07015 | -145.70784 | 25981 ft | 482 kts | 131° |
| 2026-04-22 21:44 | 64.04901 | -145.64487 | 25977 ft | 511 kts | 131° |
| 2026-04-22 21:45 | 64.02686 | -145.58085 | 25979 ft | 528 kts | 132° |
| 2026-04-22 21:45 | 64.00310 | -145.51440 | 25976 ft | 543 kts | 133° |
| 2026-04-22 21:45 | 63.97844 | -145.44758 | 25988 ft | 556 kts | 134° |
| 2026-04-22 21:45 | 63.95288 | -145.38101 | 25992 ft | 569 kts | 136° |
| 2026-04-22 21:46 | 63.92772 | -145.30952 | 25986 ft | 585 kts | 125° |
| 2026-04-22 21:46 | 63.90907 | -145.22779 | 26000 ft | 592 kts | 116° |
| 2026-04-22 21:46 | 63.88818 | -145.14755 | 26020 ft | 593 kts | 130° |
| 2026-04-22 21:46 | 63.85937 | -145.08126 | 26033 ft | 585 kts | 147° |
| 2026-04-22 21:47 | 63.82442 | -145.03543 | 26038 ft | 570 kts | 163° |
| 2026-04-22 21:47 | 63.78665 | -145.01333 | 26046 ft | 549 kts | 181° |
| 2026-04-22 21:47 | 63.74959 | -145.01570 | 26036 ft | 529 kts | 197° |
| 2026-04-22 21:47 | 63.71508 | -145.03992 | 26028 ft | 508 kts | 213° |
| 2026-04-22 21:48 | 63.68668 | -145.08281 | 26038 ft | 489 kts | 229° |
| 2026-04-22 21:48 | 63.66551 | -145.14109 | 26028 ft | 474 kts | 243° |
| 2026-04-22 21:48 | 63.64878 | -145.20484 | 26036 ft | 472 kts | 245° |
| 2026-04-22 21:48 | 63.63273 | -145.26963 | 26032 ft | 472 kts | 246° |
| 2026-04-22 21:49 | 63.61722 | -145.33366 | 26027 ft | 472 kts | 246° |
| 2026-04-22 21:49 | 63.60136 | -145.39872 | 26050 ft | 472 kts | 246° |
| 2026-04-22 21:49 | 63.58547 | -145.46363 | 26039 ft | 472 kts | 246° |
| 2026-04-22 21:49 | 63.56976 | -145.52775 | 26035 ft | 472 kts | 246° |
| 2026-04-22 21:50 | 63.55384 | -145.59271 | 26039 ft | 471 kts | 246° |
| 2026-04-22 21:50 | 63.53825 | -145.65642 | 26036 ft | 471 kts | 246° |
| 2026-04-22 21:50 | 63.52244 | -145.72113 | 26048 ft | 471 kts | 246° |
| 2026-04-22 21:50 | 63.50665 | -145.78576 | 26044 ft | 471 kts | 246° |
| 2026-04-22 21:51 | 63.49106 | -145.84968 | 26038 ft | 472 kts | 246° |
| 2026-04-22 21:51 | 63.47531 | -145.91439 | 26031 ft | 471 kts | 246° |
| 2026-04-22 21:51 | 63.45962 | -145.97895 | 26033 ft | 472 kts | 246° |
| 2026-04-22 21:52 | 63.42835 | -146.10760 | 26033 ft | 472 kts | 245° |
| 2026-04-22 21:52 | 63.41269 | -146.17135 | 26023 ft | 472 kts | 245° |
| 2026-04-22 21:52 | 63.39682 | -146.23575 | 26033 ft | 472 kts | 245° |
| 2026-04-22 21:52 | 63.38110 | -146.29955 | 26030 ft | 472 kts | 245° |
| 2026-04-22 21:53 | 63.36526 | -146.36393 | 26036 ft | 472 kts | 245° |
| 2026-04-22 21:53 | 63.34940 | -146.42856 | 26035 ft | 472 kts | 245° |
| 2026-04-22 21:53 | 63.33380 | -146.49214 | 26045 ft | 472 kts | 245° |
| 2026-04-22 21:53 | 63.31805 | -146.55642 | 26042 ft | 470 kts | 245° |
| 2026-04-22 21:54 | 63.30240 | -146.62032 | 26053 ft | 467 kts | 245° |
| 2026-04-22 21:54 | 63.28707 | -146.68297 | 26062 ft | 465 kts | 245° |
| 2026-04-22 21:54 | 63.27163 | -146.74610 | 26065 ft | 463 kts | 245° |
| 2026-04-22 21:54 | 63.25622 | -146.80918 | 26070 ft | 461 kts | 245° |
| 2026-04-22 21:55 | 63.24116 | -146.87103 | 26076 ft | 458 kts | 245° |
| 2026-04-22 21:55 | 63.22606 | -146.93373 | 26077 ft | 456 kts | 245° |
| 2026-04-22 21:55 | 63.21133 | -146.99514 | 26078 ft | 455 kts | 245° |
| 2026-04-22 21:55 | 63.19644 | -147.05798 | 26079 ft | 459 kts | 245° |
| 2026-04-22 21:56 | 63.18165 | -147.12039 | 26084 ft | 465 kts | 245° |
| 2026-04-22 21:56 | 63.16632 | -147.18407 | 26088 ft | 470 kts | 246° |
| 2026-04-22 21:56 | 63.15168 | -147.24869 | 26092 ft | 474 kts | 246° |
| 2026-04-22 21:56 | 63.13649 | -147.31442 | 26090 ft | 480 kts | 245° |
| 2026-04-22 21:57 | 63.12144 | -147.37988 | 26089 ft | 484 kts | 246° |
| 2026-04-22 21:57 | 63.10617 | -147.44698 | 26084 ft | 488 kts | 246° |
| 2026-04-22 21:57 | 63.09114 | -147.51409 | 26087 ft | 492 kts | 246° |
| 2026-04-22 21:57 | 63.07576 | -147.58235 | 26083 ft | 497 kts | 245° |
| 2026-04-22 21:58 | 63.05947 | -147.65029 | 26089 ft | 501 kts | 240° |
| 2026-04-22 21:58 | 63.03804 | -147.71039 | 26111 ft | 508 kts | 227° |
| 2026-04-22 21:58 | 63.01004 | -147.75829 | 26102 ft | 518 kts | 216° |
| 2026-04-22 21:58 | 62.97810 | -147.79765 | 26099 ft | 526 kts | 211° |
| 2026-04-22 21:59 | 62.94520 | -147.83201 | 26095 ft | 531 kts | 208° |
| 2026-04-22 21:59 | 62.91089 | -147.86458 | 26092 ft | 536 kts | 207° |
| 2026-04-22 21:59 | 62.87611 | -147.89584 | 26092 ft | 540 kts | 206° |
| 2026-04-22 21:59 | 62.84148 | -147.92613 | 26088 ft | 541 kts | 205° |
| 2026-04-22 22:00 | 62.80693 | -147.95912 | 26086 ft | 537 kts | 211° |
| 2026-04-22 22:00 | 62.77498 | -148.00120 | 26092 ft | 531 kts | 219° |
| 2026-04-22 22:00 | 62.74651 | -148.05138 | 26086 ft | 529 kts | 224° |
| 2026-04-22 22:00 | 62.71970 | -148.10529 | 26080 ft | 528 kts | 226° |
| 2026-04-22 22:01 | 62.69304 | -148.16081 | 26073 ft | 529 kts | 226° |
| 2026-04-22 22:01 | 62.66527 | -148.21414 | 26069 ft | 531 kts | 222° |
| 2026-04-22 22:01 | 62.63634 | -148.26297 | 26063 ft | 533 kts | 219° |
| 2026-04-22 22:01 | 62.60633 | -148.31092 | 26050 ft | 533 kts | 220° |
| 2026-04-22 22:02 | 62.57766 | -148.36047 | 26050 ft | 532 kts | 223° |
| 2026-04-22 22:02 | 62.54949 | -148.41212 | 26033 ft | 529 kts | 223° |
| 2026-04-22 22:02 | 62.52046 | -148.46239 | 26029 ft | 531 kts | 220° |
| 2026-04-22 22:02 | 62.49128 | -148.51014 | 26015 ft | 531 kts | 220° |
| 2026-04-22 22:03 | 62.46213 | -148.55994 | 26012 ft | 531 kts | 222° |
| 2026-04-22 22:03 | 62.43344 | -148.61092 | 26021 ft | 531 kts | 222° |
| 2026-04-22 22:03 | 62.40526 | -148.65960 | 26024 ft | 516 kts | 221° |
| 2026-04-22 22:03 | 62.37710 | -148.70643 | 26013 ft | 502 kts | 220° |
| 2026-04-22 22:04 | 62.35012 | -148.75181 | 26001 ft | 489 kts | 221° |
| 2026-04-22 22:04 | 62.32370 | -148.79728 | 25996 ft | 479 kts | 221° |
| 2026-04-22 22:04 | 62.29913 | -148.84456 | 25994 ft | 466 kts | 229° |
| 2026-04-22 22:04 | 62.27887 | -148.89793 | 25998 ft | 455 kts | 237° |
| 2026-04-22 22:05 | 62.26182 | -148.95366 | 25994 ft | 446 kts | 238° |
| 2026-04-22 22:05 | 62.24490 | -149.00913 | 25993 ft | 440 kts | 238° |
| 2026-04-22 22:05 | 62.22835 | -149.06307 | 25984 ft | 435 kts | 238° |
| 2026-04-22 22:05 | 62.21173 | -149.11732 | 25981 ft | 430 kts | 238° |
| 2026-04-22 22:06 | 62.19544 | -149.17069 | 25980 ft | 426 kts | 239° |
| 2026-04-22 22:06 | 62.17948 | -149.22292 | 25986 ft | 422 kts | 238° |
| 2026-04-22 22:06 | 62.16318 | -149.27537 | 25981 ft | 420 kts | 238° |
| 2026-04-22 22:06 | 62.14695 | -149.32732 | 25984 ft | 417 kts | 238° |
| 2026-04-22 22:07 | 62.13095 | -149.37911 | 25982 ft | 415 kts | 238° |
| 2026-04-22 22:07 | 62.11528 | -149.42988 | 25990 ft | 412 kts | 238° |
| 2026-04-22 22:07 | 62.09940 | -149.48088 | 25983 ft | 410 kts | 238° |
| 2026-04-22 22:07 | 62.08352 | -149.53162 | 25984 ft | 409 kts | 238° |
| 2026-04-22 22:08 | 62.06791 | -149.58152 | 25979 ft | 407 kts | 238° |
| 2026-04-22 22:08 | 62.05214 | -149.63191 | 25988 ft | 405 kts | 238° |
| 2026-04-22 22:08 | 62.03647 | -149.68182 | 25988 ft | 404 kts | 238° |
| 2026-04-22 22:08 | 62.02095 | -149.73110 | 25981 ft | 404 kts | 238° |
| 2026-04-22 22:09 | 62.00525 | -149.78097 | 25974 ft | 403 kts | 238° |
| 2026-04-22 22:09 | 61.98987 | -149.83013 | 25978 ft | 402 kts | 238° |
| 2026-04-22 22:09 | 61.97421 | -149.87958 | 25971 ft | 401 kts | 238° |
| 2026-04-22 22:09 | 61.95850 | -149.92890 | 25972 ft | 400 kts | 238° |
| 2026-04-22 22:10 | 61.94316 | -149.97739 | 25974 ft | 399 kts | 238° |
| 2026-04-22 22:10 | 61.92758 | -150.02646 | 25985 ft | 398 kts | 238° |
| 2026-04-22 22:10 | 61.91217 | -150.07462 | 25980 ft | 397 kts | 238° |
| 2026-04-22 22:10 | 61.89653 | -150.12335 | 25983 ft | 396 kts | 238° |
| 2026-04-22 22:11 | 61.88123 | -150.17105 | 25988 ft | 395 kts | 238° |
| 2026-04-22 22:11 | 61.86571 | -150.21937 | 25995 ft | 394 kts | 238° |
| 2026-04-22 22:11 | 61.85034 | -150.26697 | 25987 ft | 394 kts | 237° |
| 2026-04-22 22:11 | 61.83482 | -150.31468 | 25986 ft | 393 kts | 237° |
| 2026-04-22 22:12 | 61.81934 | -150.36253 | 25985 ft | 392 kts | 237° |
| 2026-04-22 22:12 | 61.80410 | -150.40981 | 25975 ft | 393 kts | 237° |
| 2026-04-22 22:12 | 61.78835 | -150.45862 | 25349 ft | 408 kts | 237° |
| 2026-04-22 22:12 | 61.77198 | -150.50896 | 24716 ft | 419 kts | 237° |
| 2026-04-22 22:13 | 61.75528 | -150.56028 | 24091 ft | 424 kts | 237° |
| 2026-04-22 22:13 | 61.73874 | -150.61129 | 23446 ft | 427 kts | 237° |
| 2026-04-22 22:13 | 61.72169 | -150.66337 | 22728 ft | 431 kts | 237° |
| 2026-04-22 22:13 | 61.70469 | -150.71497 | 22031 ft | 435 kts | 237° |
| 2026-04-22 22:14 | 61.68720 | -150.76794 | 21342 ft | 439 kts | 236° |
| 2026-04-22 22:14 | 61.66961 | -150.82110 | 20679 ft | 443 kts | 236° |
| 2026-04-22 22:14 | 61.65206 | -150.87407 | 20027 ft | 446 kts | 236° |
| 2026-04-22 22:14 | 61.63259 | -150.92531 | 19367 ft | 450 kts | 227° |
| 2026-04-22 22:15 | 61.60842 | -150.96656 | 18721 ft | 454 kts | 215° |
| 2026-04-22 22:15 | 61.57994 | -150.99663 | 18028 ft | 460 kts | 204° |
| 2026-04-22 22:15 | 61.54866 | -151.01309 | 17296 ft | 466 kts | 191° |
| 2026-04-22 22:15 | 61.51647 | -151.01461 | 16750 ft | 470 kts | 179° |
| 2026-04-22 22:16 | 61.48414 | -151.00099 | 16248 ft | 475 kts | 166° |
| 2026-04-22 22:16 | 61.45382 | -150.97286 | 15766 ft | 479 kts | 154° |
| 2026-04-22 22:16 | 61.42680 | -150.93202 | 15289 ft | 485 kts | 142° |
| 2026-04-22 22:16 | 61.40404 | -150.87900 | 14818 ft | 491 kts | 129° |
| 2026-04-22 22:17 | 61.38734 | -150.81758 | 14361 ft | 491 kts | 117° |
| 2026-04-22 22:17 | 61.37682 | -150.74972 | 13917 ft | 489 kts | 107° |
| 2026-04-22 22:17 | 61.36897 | -150.68189 | 13429 ft | 480 kts | 107° |
| 2026-04-22 22:17 | 61.36037 | -150.61505 | 12940 ft | 468 kts | 112° |
| 2026-04-22 22:18 | 61.34772 | -150.55433 | 12465 ft | 454 kts | 122° |
| 2026-04-22 22:18 | 61.33162 | -150.50068 | 12015 ft | 441 kts | 129° |
| 2026-04-22 22:18 | 61.31396 | -150.44926 | 11509 ft | 429 kts | 130° |
| 2026-04-22 22:18 | 61.29678 | -150.40012 | 11007 ft | 419 kts | 131° |
| 2026-04-22 22:19 | 61.27989 | -150.35171 | 10395 ft | 405 kts | 129° |
| 2026-04-22 22:19 | 61.26538 | -150.30226 | 9737 ft | 390 kts | 124° |
| 2026-04-22 22:19 | 61.25124 | -150.25718 | 8939 ft | 352 kts | 137° |
| 2026-04-22 22:19 | 61.23387 | -150.23055 | 8148 ft | 271 kts | 164° |
| 2026-04-22 22:20 | 61.21752 | -150.22622 | 7317 ft | 217 kts | 193° |
| 2026-04-22 22:20 | 61.20522 | -150.23939 | 6474 ft | 189 kts | 226° |
| 2026-04-22 22:20 | 61.20035 | -150.26311 | 5606 ft | 184 kts | 264° |
| 2026-04-22 22:20 | 61.20072 | -150.29237 | 4774 ft | 222 kts | 272° |
| 2026-04-22 22:21 | 61.20316 | -150.32616 | 3936 ft | 252 kts | 275° |
| 2026-04-22 22:21 | 61.20378 | -150.36364 | 3069 ft | 264 kts | 259° |
| 2026-04-22 22:21 | 61.19721 | -150.39835 | 2474 ft | 258 kts | 232° |
| 2026-04-22 22:21 | 61.18421 | -150.42148 | 2351 ft | 238 kts | 204° |
| 2026-04-22 22:22 | 61.16856 | -150.42818 | 2248 ft | 233 kts | 175° |
| 2026-04-22 22:22 | 61.15318 | -150.41759 | 2155 ft | 237 kts | 146° |
| 2026-04-22 22:22 | 61.14209 | -150.39214 | 2064 ft | 249 kts | 118° |
| 2026-04-22 22:22 | 61.13800 | -150.35673 | 1977 ft | 259 kts | 91° |
| 2026-04-22 22:23 | 61.14223 | -150.32073 | 1879 ft | 265 kts | 65° |
| 2026-04-22 22:23 | 61.15410 | -150.29125 | 1774 ft | 271 kts | 39° |
| 2026-04-22 22:23 | 61.17084 | -150.27386 | 1728 ft | 272 kts | 21° |
| 2026-04-22 22:23 | 61.18883 | -150.26079 | 1745 ft | 271 kts | 22° |
| 2026-04-22 22:24 | 61.20574 | -150.24502 | 1738 ft | 266 kts | 33° |
| 2026-04-22 22:24 | 61.21833 | -150.21849 | 1754 ft | 254 kts | 64° |
| 2026-04-22 22:24 | 61.22241 | -150.18384 | 1783 ft | 246 kts | 91° |
| 2026-04-22 22:24 | 61.22244 | -150.14868 | 1786 ft | 246 kts | 90° |
| 2026-04-22 22:25 | 61.22324 | -150.11306 | 1786 ft | 246 kts | 90° |
| 2026-04-22 22:25 | 61.22337 | -150.07800 | 1787 ft | 246 kts | 94° |
| 2026-04-22 22:25 | 61.22414 | -150.04211 | 1712 ft | 248 kts | 83° |
| 2026-04-22 22:25 | 61.22809 | -150.00807 | 1309 ft | 235 kts | 73° |
| 2026-04-22 22:26 | 61.23390 | -149.97851 | 744 ft | 215 kts | 67° |
| 2026-04-22 22:26 | 61.23950 | -149.95197 | 648 ft | 183 kts | 71° |
| 2026-04-22 22:26 | 61.24150 | -149.92581 | 655 ft | 188 kts | 83° |
| 2026-04-22 22:26 | 61.24345 | -149.89874 | 691 ft | 196 kts | 78° |
| 2026-04-22 22:27 | 61.24624 | -149.87027 | 562 ft | 204 kts | 76° |
| 2026-04-22 22:27 | 61.24860 | -149.84359 | 198 ft | 169 kts | 77° |
| 2026-04-22 22:27 | 61.25015 | -149.82581 | 196 ft | 68 kts | 79° |
| 2026-04-22 22:27 | 61.25057 | -149.82076 | 193 ft | 23 kts | 111° |
| 2026-04-22 22:28 | 61.24991 | -149.81935 | 201 ft | 8 kts | 78° |
| 2026-04-22 22:28 | 61.24998 | -149.81861 | 193 ft | 3 kts | 80° |
| 2026-04-22 22:28 | 61.24999 | -149.81850 | 199 ft | 0 kts | 81° |